createdAt,value
2018-12-19T00:01:01.082Z,5.50
2018-12-19T00:03:29.210Z,5.50
2018-12-19T00:05:56.920Z,5.50
2018-12-19T00:08:24.684Z,5.50
2018-12-19T00:10:52.409Z,5.60
2018-12-19T00:13:20.125Z,5.60
2018-12-19T00:15:48.274Z,5.70
2018-12-19T00:18:16.668Z,5.80
2018-12-19T00:20:45.018Z,5.90
2018-12-19T00:23:13.295Z,5.90
2018-12-19T00:25:41.663Z,6.00
2018-12-19T00:28:10.093Z,6.10
2018-12-19T00:30:38.546Z,6.10
2018-12-19T00:33:06.372Z,6.20
2018-12-19T00:35:34.554Z,6.20
2018-12-19T00:38:02.817Z,6.30
2018-12-19T00:40:30.642Z,6.30
2018-12-19T00:42:59.018Z,6.40
2018-12-19T00:45:27.373Z,6.40
2018-12-19T00:47:55.689Z,6.50
2018-12-19T00:50:24.058Z,6.50
2018-12-19T00:52:52.297Z,6.50
2018-12-19T00:55:20.810Z,6.50
2018-12-19T00:57:49.066Z,6.50
2018-12-19T01:00:17.336Z,6.60
2018-12-19T01:02:45.758Z,6.50
2018-12-19T01:05:13.743Z,6.60
2018-12-19T01:07:41.884Z,6.60
2018-12-19T01:10:09.699Z,6.60
2018-12-19T01:12:37.934Z,6.60
2018-12-19T01:15:06.293Z,6.60
2018-12-19T01:17:34.539Z,6.50
2018-12-19T01:20:03.201Z,6.50
2018-12-19T01:22:31.469Z,6.50
2018-12-19T01:24:59.735Z,6.50
2018-12-19T01:27:27.647Z,6.50
2018-12-19T01:29:55.832Z,6.50
2018-12-19T01:32:24.106Z,6.50
2018-12-19T01:34:51.932Z,6.60
2018-12-19T01:37:20.085Z,6.60
2018-12-19T01:39:48.592Z,6.60
2018-12-19T01:42:16.415Z,6.60
2018-12-19T01:44:44.421Z,6.60
2018-12-19T01:47:12.350Z,6.60
2018-12-19T01:49:40.257Z,6.60
2018-12-19T01:52:07.982Z,6.60
2018-12-19T01:54:35.713Z,6.60
2018-12-19T01:57:03.882Z,6.60
2018-12-19T01:59:31.809Z,6.50
2018-12-19T02:01:59.598Z,6.50
2018-12-19T02:04:27.740Z,6.50
2018-12-19T02:06:55.572Z,6.50
2018-12-19T02:09:28.766Z,6.50
2018-12-19T02:11:53.098Z,6.50
2018-12-19T02:14:21.017Z,6.40
2018-12-19T02:16:48.745Z,6.40
2018-12-19T02:19:16.441Z,6.40
2018-12-19T02:21:44.260Z,6.40
2018-12-19T02:24:12.615Z,6.40
2018-12-19T02:26:41.022Z,6.30
2018-12-19T02:29:09.401Z,6.30
2018-12-19T02:31:37.769Z,6.30
2018-12-19T02:34:06.460Z,6.20
2018-12-19T02:36:34.711Z,6.20
2018-12-19T02:39:04.682Z,6.20
2018-12-19T02:41:32.968Z,6.20
2018-12-19T02:44:01.437Z,6.30
2018-12-19T02:46:29.793Z,6.30
2018-12-19T02:48:58.070Z,6.30
2018-12-19T02:51:26.316Z,6.30
2018-12-19T02:53:54.590Z,6.40
2018-12-19T02:56:22.853Z,6.30
2018-12-19T02:58:51.129Z,6.30
2018-12-19T03:01:19.401Z,6.30
2018-12-19T03:03:47.660Z,6.30
2018-12-19T03:06:15.927Z,6.30
2018-12-19T03:08:44.193Z,6.30
2018-12-19T03:11:12.920Z,6.20
2018-12-19T03:13:41.578Z,6.20
2018-12-19T03:16:09.851Z,6.20
2018-12-19T03:18:38.123Z,6.20
2018-12-19T03:21:06.445Z,6.20
2018-12-19T03:23:34.711Z,6.30
2018-12-19T03:26:02.957Z,6.20
2018-12-19T03:28:31.323Z,6.30
2018-12-19T03:30:59.594Z,6.30
2018-12-19T03:33:27.949Z,6.30
2018-12-19T03:35:56.224Z,6.40
2018-12-19T03:38:24.501Z,6.40
2018-12-19T03:40:52.779Z,6.40
2018-12-19T03:43:21.022Z,6.40
2018-12-19T03:45:49.389Z,6.50
2018-12-19T03:48:23.483Z,6.50
2018-12-19T03:50:51.838Z,6.50
2018-12-19T03:53:20.085Z,6.50
2018-12-19T03:55:48.376Z,6.50
2018-12-19T03:58:16.692Z,6.50
2018-12-19T04:00:45.265Z,6.50
2018-12-19T04:03:13.517Z,6.40
2018-12-19T04:05:41.787Z,6.40
2018-12-19T04:08:10.081Z,6.40
2018-12-19T04:10:38.381Z,6.40
2018-12-19T04:13:06.647Z,6.30
2018-12-19T04:15:35.316Z,6.30
2018-12-19T04:18:03.588Z,6.40
2018-12-19T04:20:31.878Z,6.30
2018-12-19T04:23:00.385Z,6.30
2018-12-19T04:25:28.648Z,6.40
2018-12-19T04:27:57.233Z,6.40
2018-12-19T04:30:25.485Z,6.60
2018-12-19T04:32:53.876Z,6.40
2018-12-19T04:35:22.194Z,6.40
2018-12-19T04:37:50.470Z,6.40
2018-12-19T04:40:18.728Z,6.40
2018-12-19T04:42:47.594Z,6.40
2018-12-19T04:45:15.956Z,6.30
2018-12-19T04:47:44.253Z,6.30
2018-12-19T04:50:12.545Z,6.30
2018-12-19T04:52:40.886Z,6.30
2018-12-19T04:55:09.175Z,6.30
2018-12-19T04:57:37.494Z,6.30
2018-12-19T05:00:08.410Z,6.30
2018-12-19T05:02:36.753Z,6.30
2018-12-19T05:05:05.696Z,6.30
2018-12-19T05:07:34.153Z,6.30
2018-12-19T05:10:03.165Z,6.30
2018-12-19T05:12:31.780Z,6.30
2018-12-19T05:15:00.357Z,6.30
2018-12-19T05:17:28.738Z,6.30
2018-12-19T05:19:57.273Z,6.20
2018-12-19T05:22:25.537Z,6.30
2018-12-19T05:24:53.850Z,6.30
2018-12-19T05:27:21.654Z,6.30
2018-12-19T05:29:49.480Z,6.30
2018-12-19T05:32:17.192Z,6.30
2018-12-19T05:34:44.954Z,6.30
2018-12-19T05:37:12.637Z,6.40
2018-12-19T05:39:40.334Z,6.40
2018-12-19T05:42:08.052Z,6.40
2018-12-19T05:44:36.341Z,6.40
2018-12-19T05:47:04.690Z,6.50
2018-12-19T05:49:33.662Z,6.50
2018-12-19T05:52:01.453Z,6.60
2018-12-19T05:54:29.192Z,6.70
2018-12-19T05:56:56.920Z,6.80
2018-12-19T05:59:24.768Z,6.80
2018-12-19T06:01:52.670Z,6.90
2018-12-19T06:04:20.821Z,6.90
2018-12-19T06:06:48.850Z,6.90
2018-12-19T06:09:16.652Z,6.90
2018-12-19T06:11:44.543Z,7.00
2018-12-19T06:14:12.273Z,7.00
2018-12-19T06:16:40.089Z,7.00
2018-12-19T06:19:07.904Z,7.00
2018-12-19T06:21:35.617Z,6.90
2018-12-19T06:24:03.330Z,6.90
2018-12-19T06:26:31.049Z,6.80
2018-12-19T06:28:58.758Z,6.80
2018-12-19T06:31:26.554Z,6.80
2018-12-19T06:33:54.595Z,6.80
2018-12-19T06:36:22.655Z,6.80
2018-12-19T06:38:50.382Z,6.80
2018-12-19T06:41:18.127Z,6.90
2018-12-19T06:43:45.861Z,6.90
2018-12-19T06:46:13.755Z,6.90
2018-12-19T06:48:41.497Z,6.90
2018-12-19T06:51:09.199Z,6.90
2018-12-19T06:53:37.050Z,6.90
2018-12-19T06:56:04.777Z,6.90
2018-12-19T06:58:32.704Z,6.90
2018-12-19T07:01:00.720Z,6.90
2018-12-19T07:03:28.653Z,6.90
2018-12-19T07:05:56.345Z,6.90
2018-12-19T07:08:24.058Z,6.80
2018-12-19T07:10:51.763Z,6.80
2018-12-19T07:13:19.486Z,6.80
2018-12-19T07:15:47.324Z,6.90
2018-12-19T07:18:15.049Z,6.90
2018-12-19T07:20:42.775Z,7.00
2018-12-19T07:23:10.558Z,7.00
2018-12-19T07:25:38.257Z,7.00
2018-12-19T07:28:05.964Z,7.00
2018-12-19T07:30:33.769Z,7.00
2018-12-19T07:33:01.569Z,7.10
2018-12-19T07:35:29.522Z,7.10
2018-12-19T07:37:58.100Z,7.10
2018-12-19T07:40:25.829Z,7.10
2018-12-19T07:42:53.561Z,7.10
2018-12-19T07:45:21.409Z,7.10
2018-12-19T07:47:49.413Z,7.00
2018-12-19T07:50:17.445Z,7.00
2018-12-19T07:58:25.373Z,7.00
2018-12-19T08:00:53.116Z,7.10
2018-12-19T08:03:21.001Z,7.10
2018-12-19T08:05:48.716Z,7.10
2018-12-19T08:08:16.400Z,7.10
2018-12-19T08:10:44.127Z,7.10
2018-12-19T08:13:11.818Z,7.10
2018-12-19T08:15:39.529Z,7.10
2018-12-19T08:18:07.340Z,7.10
2018-12-19T08:20:35.128Z,7.20
2018-12-19T08:23:02.860Z,7.20
2018-12-19T08:25:30.845Z,7.20
2018-12-19T08:27:58.603Z,7.20
2018-12-19T08:30:26.450Z,7.20
2018-12-19T08:32:54.294Z,7.30
2018-12-19T08:35:22.106Z,7.30
2018-12-19T08:37:49.836Z,7.40
2018-12-19T08:40:17.538Z,7.40
2018-12-19T08:42:45.495Z,7.40
2018-12-19T08:45:13.454Z,7.40
2018-12-19T08:47:41.668Z,7.40
2018-12-19T08:50:09.925Z,7.40
2018-12-19T08:52:38.226Z,7.40
2018-12-19T08:55:06.573Z,7.40
2018-12-19T08:57:34.850Z,7.40
2018-12-19T09:00:04.826Z,7.40
2018-12-19T09:02:33.117Z,7.40
2018-12-19T09:05:01.554Z,7.40
2018-12-19T09:07:29.976Z,7.40
2018-12-19T09:09:58.250Z,7.40
2018-12-19T09:12:26.649Z,7.40
2018-12-19T09:14:56.995Z,7.50
2018-12-19T09:17:25.635Z,7.50
2018-12-19T09:19:54.336Z,7.50
2018-12-19T09:22:22.609Z,7.50
2018-12-19T09:24:51.178Z,7.50
2018-12-19T09:27:19.458Z,7.50
2018-12-19T09:29:47.794Z,8.00
2018-12-19T09:32:16.050Z,7.50
2018-12-19T09:34:44.555Z,7.60
2018-12-19T09:37:12.812Z,7.60
2018-12-19T09:39:41.551Z,7.60
2018-12-19T09:42:10.008Z,7.60
2018-12-19T09:44:38.298Z,7.70
2018-12-19T09:47:06.588Z,7.90
2018-12-19T09:49:34.950Z,8.10
2018-12-19T09:52:03.211Z,8.40
2018-12-19T09:54:31.096Z,9.00
2018-12-19T09:56:59.271Z,9.10
2018-12-19T09:59:27.545Z,9.00
2018-12-19T10:01:56.306Z,9.00
2018-12-19T10:04:24.585Z,9.20
2018-12-19T10:06:52.538Z,9.60
2018-12-19T10:09:20.705Z,9.80
2018-12-19T10:11:48.534Z,9.90
2018-12-19T10:14:16.250Z,9.80
2018-12-19T10:16:44.186Z,9.60
2018-12-19T10:19:11.864Z,9.40
2018-12-19T10:21:39.744Z,9.30
2018-12-19T10:24:07.487Z,9.20
2018-12-19T10:26:35.655Z,9.20
2018-12-19T10:29:03.622Z,9.20
2018-12-19T10:31:31.498Z,9.40
2018-12-19T10:33:59.168Z,9.70
2018-12-19T10:36:32.547Z,9.80
2018-12-19T10:39:00.396Z,9.60
2018-12-19T10:41:28.213Z,9.50
2018-12-19T10:43:56.914Z,9.40
2018-12-19T10:46:25.263Z,9.40
2018-12-19T10:48:53.353Z,9.50
2018-12-19T10:51:21.197Z,9.60
2018-12-19T10:53:49.791Z,9.60
2018-12-19T10:56:19.361Z,9.70
2018-12-19T10:58:47.319Z,9.60
2018-12-19T11:01:15.068Z,9.50
2018-12-19T11:03:42.947Z,9.50
2018-12-19T11:06:10.684Z,9.60
2018-12-19T11:08:38.918Z,10.10
2018-12-19T11:11:06.691Z,10.70
2018-12-19T11:13:34.453Z,11.30
2018-12-19T11:16:02.225Z,11.60
2018-12-19T11:18:30.149Z,11.60
2018-12-19T11:20:58.045Z,11.60
2018-12-19T11:23:25.906Z,11.50
2018-12-19T11:25:53.726Z,11.60
2018-12-19T11:28:21.590Z,11.70
2018-12-19T11:30:50.019Z,11.80
2018-12-19T11:33:17.933Z,11.60
2018-12-19T11:35:45.755Z,11.80
2018-12-19T11:38:13.571Z,12.30
2018-12-19T11:40:41.392Z,12.60
2018-12-19T11:43:09.335Z,12.30
2018-12-19T11:45:37.128Z,12.20
2018-12-19T11:48:04.845Z,12.10
2018-12-19T11:50:32.915Z,11.90
2018-12-19T11:53:00.655Z,11.60
2018-12-19T11:55:28.399Z,11.80
2018-12-19T11:57:56.276Z,11.80
2018-12-19T12:00:24.136Z,11.80
2018-12-19T12:02:52.533Z,11.80
2018-12-19T12:05:20.354Z,11.40
2018-12-19T12:07:48.189Z,11.30
2018-12-19T12:10:15.986Z,11.30
2018-12-19T12:12:44.138Z,11.30
2018-12-19T12:15:11.947Z,11.30
2018-12-19T12:17:39.694Z,11.10
2018-12-19T12:20:07.526Z,10.80
2018-12-19T12:22:35.387Z,10.60
2018-12-19T12:25:04.129Z,10.40
2018-12-19T12:27:31.883Z,10.20
2018-12-19T12:29:59.784Z,10.10
2018-12-19T12:32:27.543Z,10.00
2018-12-19T12:34:55.286Z,10.00
2018-12-19T12:37:23.730Z,10.00
2018-12-19T12:39:51.972Z,10.00
2018-12-19T12:42:19.728Z,10.00
2018-12-19T12:44:47.832Z,9.80
2018-12-19T12:47:15.932Z,9.80
2018-12-19T12:49:44.016Z,9.70
2018-12-19T12:52:12.350Z,9.60
2018-12-19T12:54:40.722Z,9.60
2018-12-19T12:57:09.549Z,9.70
2018-12-19T12:59:37.350Z,9.80
2018-12-19T13:02:05.209Z,9.80
2018-12-19T13:04:32.975Z,9.90
2018-12-19T13:07:00.759Z,10.00
2018-12-19T13:09:29.409Z,10.00
2018-12-19T13:11:58.965Z,10.00
2018-12-19T13:14:27.320Z,9.90
2018-12-19T13:16:55.098Z,9.80
2018-12-19T13:19:22.837Z,9.80
2018-12-19T13:21:50.804Z,9.80
2018-12-19T13:24:18.610Z,9.80
2018-12-19T13:26:46.353Z,9.80
2018-12-19T13:29:14.191Z,9.80
2018-12-19T13:31:41.957Z,9.90
2018-12-19T13:34:09.828Z,9.90
2018-12-19T13:36:37.673Z,9.90
2018-12-19T13:39:06.364Z,9.90
2018-12-19T13:41:34.378Z,9.90
2018-12-19T13:44:02.360Z,9.90
2018-12-19T13:46:30.102Z,9.90
2018-12-19T13:48:57.862Z,9.80
2018-12-19T13:51:25.768Z,9.80
2018-12-19T13:53:53.838Z,9.80
2018-12-19T13:56:21.764Z,9.80
2018-12-19T13:58:49.984Z,9.80
2018-12-19T14:01:17.726Z,9.80
2018-12-19T14:03:45.958Z,9.80
2018-12-19T14:06:13.770Z,9.90
2018-12-19T14:08:41.663Z,9.70
2018-12-19T14:11:09.531Z,9.60
2018-12-19T14:13:37.359Z,9.60
2018-12-19T14:16:05.766Z,9.60
2018-12-19T14:18:33.642Z,9.50
2018-12-19T14:21:01.399Z,9.50
2018-12-19T14:23:29.182Z,9.30
2018-12-19T14:25:56.967Z,9.30
2018-12-19T14:28:24.729Z,9.10
2018-12-19T14:30:52.632Z,9.10
2018-12-19T14:33:20.507Z,9.00
2018-12-19T14:35:48.349Z,8.90
2018-12-19T14:38:16.165Z,8.90
2018-12-19T14:40:44.182Z,8.80
2018-12-19T14:43:12.220Z,8.90
2018-12-19T14:45:43.871Z,8.80
2018-12-19T14:48:11.677Z,8.80
2018-12-19T14:50:39.363Z,8.80
2018-12-19T14:53:07.164Z,8.80
2018-12-19T14:55:35.093Z,8.70
2018-12-19T14:58:02.824Z,8.70
2018-12-19T15:00:30.660Z,8.70
2018-12-19T15:02:58.434Z,8.60
2018-12-19T15:05:27.462Z,8.60
2018-12-19T15:07:55.365Z,8.50
2018-12-19T15:10:24.189Z,8.50
2018-12-19T15:12:52.179Z,8.40
2018-12-19T15:15:22.512Z,8.40
2018-12-19T15:17:50.313Z,8.30
2018-12-19T15:20:18.174Z,8.30
2018-12-19T15:22:45.989Z,8.30
2018-12-19T15:25:13.950Z,8.20
2018-12-19T15:27:41.690Z,8.20
2018-12-19T15:30:09.479Z,8.10
2018-12-19T15:32:38.011Z,8.00
2018-12-19T15:35:06.226Z,7.90
2018-12-19T15:37:33.981Z,7.80
2018-12-19T15:40:02.199Z,7.80
2018-12-19T15:42:32.638Z,7.70
2018-12-19T15:44:59.994Z,7.60
2018-12-19T15:47:27.755Z,7.60
2018-12-19T15:49:55.581Z,7.50
2018-12-19T15:52:23.424Z,7.60
2018-12-19T15:54:51.226Z,7.60
2018-12-19T15:57:18.956Z,7.70
2018-12-19T15:59:46.688Z,7.70
2018-12-19T16:02:14.477Z,7.80
2018-12-19T16:04:42.480Z,7.80
2018-12-19T16:07:10.311Z,8.00
2018-12-19T16:09:38.063Z,8.10
2018-12-19T16:12:05.833Z,8.10
2018-12-19T16:14:33.593Z,8.10
2018-12-19T16:17:01.367Z,8.10
2018-12-19T16:19:29.230Z,8.10
2018-12-19T16:21:57.037Z,8.10
2018-12-19T16:24:25.198Z,8.00
2018-12-19T16:26:53.545Z,8.00
2018-12-19T16:29:21.620Z,8.00
2018-12-19T16:31:50.318Z,8.00
2018-12-19T16:34:18.397Z,8.00
2018-12-19T16:36:46.272Z,8.00
2018-12-19T16:39:14.155Z,7.90
2018-12-19T16:41:42.024Z,7.90
2018-12-19T16:44:14.908Z,7.90
2018-12-19T16:46:42.941Z,7.90
2018-12-19T16:49:10.894Z,8.00
2018-12-19T16:51:38.900Z,8.00
2018-12-19T16:54:06.628Z,8.00
2018-12-19T16:56:34.524Z,8.00
2018-12-19T16:59:02.284Z,8.00
2018-12-19T17:01:30.026Z,8.00
2018-12-19T17:03:57.945Z,8.00
2018-12-19T17:06:25.674Z,8.00
2018-12-19T17:08:53.440Z,8.00
2018-12-19T17:11:21.325Z,8.10
2018-12-19T17:13:49.035Z,8.00
2018-12-19T17:16:16.739Z,8.00
2018-12-19T17:18:44.525Z,8.00
2018-12-19T17:21:12.345Z,7.90
2018-12-19T17:23:40.117Z,7.80
2018-12-19T17:26:07.874Z,7.90
2018-12-19T17:28:36.942Z,7.90
2018-12-19T17:31:04.714Z,7.80
2018-12-19T17:33:32.523Z,7.70
2018-12-19T17:36:00.276Z,7.60
2018-12-19T17:38:28.162Z,7.60
2018-12-19T17:40:56.054Z,7.60
2018-12-19T17:43:23.782Z,7.60
2018-12-19T17:45:51.655Z,7.60
2018-12-19T17:48:19.419Z,7.40
2018-12-19T17:50:47.201Z,7.40
2018-12-19T17:53:15.098Z,7.30
2018-12-19T17:55:42.923Z,7.20
2018-12-19T17:58:10.704Z,7.20
2018-12-19T18:00:39.399Z,7.20
2018-12-19T18:03:07.403Z,7.10
2018-12-19T18:05:35.214Z,7.20
2018-12-19T18:08:03.191Z,7.30
2018-12-19T18:10:30.930Z,7.00
2018-12-19T18:12:58.673Z,7.40
2018-12-19T18:15:26.474Z,7.40
2018-12-19T18:17:55.022Z,7.40
2018-12-19T18:20:22.885Z,7.40
2018-12-19T18:22:50.817Z,7.40
2018-12-19T18:25:18.645Z,7.40
2018-12-19T18:27:46.812Z,7.40
2018-12-19T18:30:14.580Z,7.50
2018-12-19T18:32:42.355Z,7.50
2018-12-19T18:35:10.209Z,7.40
2018-12-19T18:37:38.063Z,7.40
2018-12-19T18:40:05.919Z,7.40
2018-12-19T18:42:33.814Z,7.40
2018-12-19T18:45:01.713Z,7.40
2018-12-19T18:47:29.502Z,7.30
2018-12-19T18:49:57.404Z,7.40
2018-12-19T18:52:25.440Z,7.40
2018-12-19T18:54:53.590Z,7.40
2018-12-19T18:57:21.603Z,7.50
2018-12-19T18:59:49.491Z,7.60
2018-12-19T19:02:17.438Z,7.70
2018-12-19T19:04:45.322Z,7.80
2018-12-19T19:07:13.300Z,7.90
2018-12-19T19:09:41.411Z,7.90
2018-12-19T19:12:09.218Z,8.00
2018-12-19T19:14:37.188Z,8.00
2018-12-19T19:17:04.939Z,8.10
2018-12-19T19:19:32.845Z,8.10
2018-12-19T19:22:00.745Z,8.10
2018-12-19T19:24:28.520Z,8.10
2018-12-19T19:26:56.304Z,8.20
2018-12-19T19:29:24.106Z,8.20
2018-12-19T19:31:51.835Z,8.20
2018-12-19T19:34:25.080Z,8.20
2018-12-19T19:36:49.614Z,8.20
2018-12-19T19:39:17.489Z,8.20
2018-12-19T19:41:45.242Z,8.20
2018-12-19T19:44:13.000Z,8.20
2018-12-19T19:46:40.872Z,8.20
2018-12-19T19:49:08.590Z,8.10
2018-12-19T19:51:36.565Z,8.10
2018-12-19T19:54:04.679Z,8.10
2018-12-19T19:56:32.625Z,8.00
2018-12-19T19:59:00.726Z,8.00
2018-12-19T20:01:28.615Z,7.90
2018-12-19T20:03:56.455Z,7.90
2018-12-19T20:06:24.272Z,8.00
2018-12-19T20:08:52.057Z,7.90
2018-12-19T20:11:19.860Z,7.90
2018-12-19T20:13:47.998Z,7.90
2018-12-19T20:16:15.766Z,7.80
2018-12-19T20:18:43.631Z,7.80
2018-12-19T20:21:11.357Z,7.70
2018-12-19T20:23:39.556Z,7.70
2018-12-19T20:26:07.405Z,7.70
2018-12-19T20:28:36.128Z,7.70
2018-12-19T20:31:04.183Z,7.70
2018-12-19T20:33:32.565Z,7.70
2018-12-19T20:36:00.350Z,7.60
2018-12-19T20:38:28.750Z,7.60
2018-12-19T20:40:56.705Z,7.60
2018-12-19T20:43:24.559Z,7.60
2018-12-19T20:45:52.398Z,7.60
2018-12-19T20:48:20.199Z,7.60
2018-12-19T20:50:48.071Z,7.60
2018-12-19T20:53:15.927Z,7.60
2018-12-19T20:55:43.895Z,7.60
2018-12-19T20:58:11.899Z,7.60
2018-12-19T21:00:39.839Z,7.60
2018-12-19T21:03:08.514Z,7.60
2018-12-19T21:05:36.449Z,7.60
2018-12-19T21:08:04.168Z,7.60
2018-12-19T21:10:32.175Z,7.60
2018-12-19T21:12:59.921Z,7.60
2018-12-19T21:15:28.002Z,7.70
2018-12-19T21:18:01.840Z,7.60
2018-12-19T21:20:33.692Z,7.60
2018-12-19T21:23:01.808Z,7.60
2018-12-19T21:25:29.825Z,7.60
2018-12-19T21:27:58.402Z,7.70
2018-12-19T21:30:26.203Z,7.60
2018-12-19T21:32:54.062Z,7.60
2018-12-19T21:35:21.780Z,7.60
2018-12-19T21:37:49.672Z,7.60
2018-12-19T21:40:17.532Z,7.70
2018-12-19T21:42:45.354Z,7.70
2018-12-19T21:45:13.073Z,7.70
2018-12-19T21:47:41.096Z,7.70
2018-12-19T21:50:08.843Z,7.70
2018-12-19T21:52:36.626Z,7.70
2018-12-19T21:55:04.443Z,7.70
2018-12-19T21:57:32.441Z,7.70
2018-12-19T22:00:00.198Z,7.70
2018-12-19T22:02:27.997Z,7.80
2018-12-19T22:04:55.750Z,7.80
2018-12-19T22:07:23.432Z,7.80
2018-12-19T22:09:51.384Z,7.80
2018-12-19T22:12:19.196Z,7.90
2018-12-19T22:14:47.018Z,7.90
2018-12-19T22:17:20.619Z,7.90
2018-12-19T22:19:48.410Z,7.90
2018-12-19T22:22:16.162Z,7.90
2018-12-19T22:24:43.920Z,7.90
2018-12-19T22:27:11.701Z,7.90
2018-12-19T22:29:39.783Z,8.00
2018-12-19T22:32:08.346Z,8.00
2018-12-19T22:34:36.316Z,8.00
2018-12-19T22:37:04.052Z,8.00
2018-12-19T22:39:31.827Z,8.00
2018-12-19T22:41:59.574Z,8.00
2018-12-19T22:44:27.368Z,8.00
2018-12-19T22:46:55.114Z,8.00
2018-12-19T22:49:23.019Z,8.00
2018-12-19T22:51:50.856Z,8.00
2018-12-19T22:54:18.562Z,8.00
2018-12-19T22:56:46.358Z,8.00
2018-12-19T22:59:14.070Z,8.00
2018-12-19T23:01:47.765Z,8.00
2018-12-19T23:04:15.532Z,8.00
2018-12-19T23:06:43.263Z,8.00
2018-12-19T23:09:11.075Z,8.00
2018-12-19T23:11:38.897Z,8.00
2018-12-19T23:14:06.762Z,8.00
2018-12-19T23:16:34.492Z,8.00
2018-12-19T23:19:02.302Z,8.00
2018-12-19T23:21:30.159Z,8.00
2018-12-19T23:23:58.093Z,8.00
2018-12-19T23:26:26.016Z,7.90
2018-12-19T23:28:55.922Z,7.90
2018-12-19T23:31:23.908Z,7.80
2018-12-19T23:33:51.644Z,7.80
2018-12-19T23:36:19.390Z,7.70
2018-12-19T23:38:47.213Z,7.80
2018-12-19T23:41:14.961Z,7.70
2018-12-19T23:43:43.096Z,7.80
2018-12-19T23:46:10.930Z,7.80
2018-12-19T23:48:38.753Z,7.80
2018-12-19T23:51:06.658Z,7.80
2018-12-19T23:53:34.786Z,7.80
2018-12-19T23:56:02.647Z,7.80
2018-12-19T23:58:30.442Z,7.80
